sensor_id;sensor_type;location;lat;lon;timestamp;temperature;humidity
8332;DHT22;4203;48.144;14.118;2024-01-27T12:51:19;17.90;85.20
8332;DHT22;4203;48.144;14.118;2024-01-27T12:53:47;18.30;77.80
8332;DHT22;4203;48.144;14.118;2024-01-27T13:02:02;17.20;77.90
8332;DHT22;4203;48.144;14.118;2024-01-27T13:22:58;17.10;75.80
8332;DHT22;4203;48.144;14.118;2024-01-27T13:25:25;16.60;78.70
8332;DHT22;4203;48.144;14.118;2024-01-27T13:27:53;17.10;78.20
8332;DHT22;4203;48.144;14.118;2024-01-27T13:30:21;17.20;78.10
8332;DHT22;4203;48.144;14.118;2024-01-27T13:32:49;17.90;78.60
8332;DHT22;4203;48.144;14.118;2024-01-27T13:35:17;18.20;74.70
8332;DHT22;4203;48.144;14.118;2024-01-27T13:37:45;18.00;74.00
8332;DHT22;4203;48.144;14.118;2024-01-27T13:40:15;19.10;72.70
8332;DHT22;4203;48.144;14.118;2024-01-27T13:42:43;18.80;72.60
8332;DHT22;4203;48.144;14.118;2024-01-27T13:45:10;18.00;75.50
8332;DHT22;4203;48.144;14.118;2024-01-27T13:47:39;18.40;72.20
8332;DHT22;4203;48.144;14.118;2024-01-27T13:50:06;17.70;71.00
8332;DHT22;4203;48.144;14.118;2024-01-27T13:52:33;18.20;74.50
8332;DHT22;4203;48.144;14.118;2024-01-27T13:55:01;18.20;71.90
8332;DHT22;4203;48.144;14.118;2024-01-27T13:57:29;18.10;72.80
8332;DHT22;4203;48.144;14.118;2024-01-27T13:59:57;17.60;69.30
8332;DHT22;4203;48.144;14.118;2024-01-27T14:02:24;16.90;77.60
8332;DHT22;4203;48.144;14.118;2024-01-27T14:04:52;16.80;76.30
8332;DHT22;4203;48.144;14.118;2024-01-27T14:07:19;17.00;71.80
8332;DHT22;4203;48.144;14.118;2024-01-27T14:09:46;17.50;77.90
8332;DHT22;4203;48.144;14.118;2024-01-27T14:12:14;17.80;72.60
8332;DHT22;4203;48.144;14.118;2024-01-27T14:14:43;17.10;73.30
8332;DHT22;4203;48.144;14.118;2024-01-27T14:17:11;17.10;73.60
8332;DHT22;4203;48.144;14.118;2024-01-27T14:25:22;15.80;74.50
8332;DHT22;4203;48.144;14.118;2024-01-27T14:27:49;16.80;74.60
8332;DHT22;4203;48.144;14.118;2024-01-27T14:30:18;16.50;69.60
8332;DHT22;4203;48.144;14.118;2024-01-27T14:32:45;16.50;69.70
8332;DHT22;4203;48.144;14.118;2024-01-27T14:35:13;15.50;68.00
8332;DHT22;4203;48.144;14.118;2024-01-27T14:37:40;15.10;71.70
8332;DHT22;4203;48.144;14.118;2024-01-27T14:40:08;15.50;73.00
8332;DHT22;4203;48.144;14.118;2024-01-27T14:42:36;15.60;68.90
8332;DHT22;4203;48.144;14.118;2024-01-27T14:45:06;15.10;71.40
8332;DHT22;4203;48.144;14.118;2024-01-27T20:27:50;0.20;99.90
8332;DHT22;4203;48.144;14.118;2024-01-27T20:37:33;-0.80;99.90
8332;DHT22;4203;48.144;14.118;2024-01-27T20:40:14;-0.70;99.90
8332;DHT22;4203;48.144;14.118;2024-01-27T20:43:15;-0.70;99.90
8332;DHT22;4203;48.144;14.118;2024-01-27T20:45:47;0.40;99.90
8332;DHT22;4203;48.144;14.118;2024-01-27T20:48:29;-0.80;99.90
8332;DHT22;4203;48.144;14.118;2024-01-27T20:50:56;-0.80;99.90
8332;DHT22;4203;48.144;14.118;2024-01-27T20:53:24;-0.80;99.90
8332;DHT22;4203;48.144;14.118;2024-01-27T20:55:51;-0.80;99.90
8332;DHT22;4203;48.144;14.118;2024-01-27T20:58:19;-0.80;99.90
8332;DHT22;4203;48.144;14.118;2024-01-27T21:00:47;-0.70;99.90
8332;DHT22;4203;48.144;14.118;2024-01-27T21:03:15;-0.50;99.90
8332;DHT22;4203;48.144;14.118;2024-01-27T21:05:43;-0.50;99.90
8332;DHT22;4203;48.144;14.118;2024-01-27T21:08:10;-0.50;99.90
8332;DHT22;4203;48.144;14.118;2024-01-27T21:10:38;-0.40;99.90
8332;DHT22;4203;48.144;14.118;2024-01-27T21:13:05;-0.40;99.90
8332;DHT22;4203;48.144;14.118;2024-01-27T21:15:34;-0.40;99.90
8332;DHT22;4203;48.144;14.118;2024-01-27T21:18:01;-0.50;99.90
8332;DHT22;4203;48.144;14.118;2024-01-27T21:20:30;-0.50;99.90
8332;DHT22;4203;48.144;14.118;2024-01-27T21:22:58;-0.60;99.90
8332;DHT22;4203;48.144;14.118;2024-01-27T21:25:26;-0.70;99.90
8332;DHT22;4203;48.144;14.118;2024-01-27T21:27:53;-0.70;99.90
8332;DHT22;4203;48.144;14.118;2024-01-27T21:30:20;-0.70;99.90
8332;DHT22;4203;48.144;14.118;2024-01-27T21:32:49;-0.70;99.90
8332;DHT22;4203;48.144;14.118;2024-01-27T21:35:17;-0.70;99.90
8332;DHT22;4203;48.144;14.118;2024-01-27T21:37:45;-0.80;99.90
8332;DHT22;4203;48.144;14.118;2024-01-27T21:40:12;-0.80;99.90
8332;DHT22;4203;48.144;14.118;2024-01-27T21:42:40;-0.90;99.90
8332;DHT22;4203;48.144;14.118;2024-01-27T21:45:08;-0.90;99.90
8332;DHT22;4203;48.144;14.118;2024-01-27T21:47:35;-1.00;99.90
8332;DHT22;4203;48.144;14.118;2024-01-27T21:50:05;-1.00;99.90
8332;DHT22;4203;48.144;14.118;2024-01-27T21:52:32;-1.10;99.90
8332;DHT22;4203;48.144;14.118;2024-01-27T21:55:00;-1.00;99.90
8332;DHT22;4203;48.144;14.118;2024-01-27T21:57:27;-1.00;99.90
8332;DHT22;4203;48.144;14.118;2024-01-27T21:59:55;-0.90;99.90
8332;DHT22;4203;48.144;14.118;2024-01-27T22:02:22;-0.90;99.90
8332;DHT22;4203;48.144;14.118;2024-01-27T22:04:50;-0.80;99.90
8332;DHT22;4203;48.144;14.118;2024-01-27T22:07:19;-0.80;99.90
8332;DHT22;4203;48.144;14.118;2024-01-27T22:09:46;-0.80;99.90
8332;DHT22;4203;48.144;14.118;2024-01-27T22:12:14;-0.70;99.90
8332;DHT22;4203;48.144;14.118;2024-01-27T22:14:43;-0.60;99.90
8332;DHT22;4203;48.144;14.118;2024-01-27T22:17:11;-0.70;99.90
8332;DHT22;4203;48.144;14.118;2024-01-27T22:19:38;-0.70;99.90
8332;DHT22;4203;48.144;14.118;2024-01-27T22:22:05;-0.80;99.90
8332;DHT22;4203;48.144;14.118;2024-01-27T22:24:34;-0.80;99.90
8332;DHT22;4203;48.144;14.118;2024-01-27T22:27:01;-1.00;99.90
8332;DHT22;4203;48.144;14.118;2024-01-27T22:29:29;-1.10;99.90
8332;DHT22;4203;48.144;14.118;2024-01-27T22:31:57;-1.10;99.90
8332;DHT22;4203;48.144;14.118;2024-01-27T22:34:24;-1.20;99.90
8332;DHT22;4203;48.144;14.118;2024-01-27T22:36:52;-1.30;99.90
8332;DHT22;4203;48.144;14.118;2024-01-27T22:39:19;-1.30;99.90
8332;DHT22;4203;48.144;14.118;2024-01-27T22:41:48;-1.20;99.90
8332;DHT22;4203;48.144;14.118;2024-01-27T22:44:15;-1.10;99.90
8332;DHT22;4203;48.144;14.118;2024-01-27T22:46:42;-1.10;99.90
8332;DHT22;4203;48.144;14.118;2024-01-27T22:49:09;-1.00;99.90
8332;DHT22;4203;48.144;14.118;2024-01-27T22:51:37;-1.00;99.90
8332;DHT22;4203;48.144;14.118;2024-01-27T22:54:05;-1.00;99.90
8332;DHT22;4203;48.144;14.118;2024-01-27T22:56:33;-1.10;99.90
8332;DHT22;4203;48.144;14.118;2024-01-27T22:59:01;-1.20;99.90
8332;DHT22;4203;48.144;14.118;2024-01-27T23:01:28;-1.30;99.90
8332;DHT22;4203;48.144;14.118;2024-01-27T23:03:56;-1.30;99.90
8332;DHT22;4203;48.144;14.118;2024-01-27T23:06:23;-1.30;99.90
8332;DHT22;4203;48.144;14.118;2024-01-27T23:08:51;-1.30;99.90
8332;DHT22;4203;48.144;14.118;2024-01-27T23:11:18;-1.30;99.90
8332;DHT22;4203;48.144;14.118;2024-01-27T23:13:45;-1.40;99.90
8332;DHT22;4203;48.144;14.118;2024-01-27T23:16:15;-1.50;99.90
8332;DHT22;4203;48.144;14.118;2024-01-27T23:18:44;-1.60;99.90
8332;DHT22;4203;48.144;14.118;2024-01-27T23:21:11;-1.80;99.90
8332;DHT22;4203;48.144;14.118;2024-01-27T23:23:39;-1.80;99.90
8332;DHT22;4203;48.144;14.118;2024-01-27T23:26:07;-1.80;99.90
8332;DHT22;4203;48.144;14.118;2024-01-27T23:28:35;-1.80;99.90
8332;DHT22;4203;48.144;14.118;2024-01-27T23:31:03;-1.90;99.90
8332;DHT22;4203;48.144;14.118;2024-01-27T23:33:32;-1.90;99.90
8332;DHT22;4203;48.144;14.118;2024-01-27T23:35:59;-1.90;99.90
8332;DHT22;4203;48.144;14.118;2024-01-27T23:38:26;-1.90;99.90
8332;DHT22;4203;48.144;14.118;2024-01-27T23:40:53;-1.90;99.90
8332;DHT22;4203;48.144;14.118;2024-01-27T23:43:20;-2.00;99.90
8332;DHT22;4203;48.144;14.118;2024-01-27T23:45:47;-2.10;99.90
8332;DHT22;4203;48.144;14.118;2024-01-27T23:48:15;-2.10;99.90
8332;DHT22;4203;48.144;14.118;2024-01-27T23:50:43;-2.10;99.90
8332;DHT22;4203;48.144;14.118;2024-01-27T23:53:11;-2.10;99.90
8332;DHT22;4203;48.144;14.118;2024-01-27T23:55:45;-2.10;99.90
8332;DHT22;4203;48.144;14.118;2024-01-27T23:58:14;-2.20;99.90
